• Join FlightAware (Why Join?)
  • Login
  • US Flag 
12:22AM EDT


 

Airport Tracker/Info


-or-


 

Live Flight TrackerFlight Track Log ✈ UAL4695 ✈ 15-Apr-2013 ✈ KSAV - KEWR

Flight Track Log - Related Links

Times and Time Zones

All times are in EDT time to prevent confusion due to time zone crossing. See the UAL4695 flight status page for this flight to view local times or setup timezone preferences in your user account.

Time Position Orientation Groundspeed Altitude Reporting Facility
EDT Latitude Longitude Course Direction KTS MPH feet Rate Location/Type
05:07PM 32.1953 -81.0686 North 245 282 5,400  Level Jacksonville Center
05:08PM 32.5073 -81.1533 North  Level FlightAware Approximate
05:08PM 32.2561 -81.1017 335° Northwest 236 272 7,300  Level Jacksonville Center
05:09PM 32.6067 -81.1500 North  Level FlightAware Approximate
05:09PM 32.3236 -81.1372 336° Northwest 261 300 9,600  Level Jacksonville Center
05:10PM 32.7061 -81.1492 North  Level FlightAware Approximate
05:10PM 32.3992 -81.1728 338° Northwest 276 318 10,500  Level Jacksonville Center
05:11PM 32.8051 -81.1369 North  Level FlightAware Approximate
05:11PM 32.4803 -81.1489 14° North 309 356 11,500  Level Jacksonville Center
05:12PM 32.9040 -81.1245 North  Level FlightAware Approximate
05:12PM 32.5775 -81.0953 25° Northeast 334 384 13,000  Level Jacksonville Center
05:13PM 32.6708 -81.0417 26° Northeast 356 410 14,200 1,080 Climbing Jacksonville Center
05:14PM 32.7619 -80.9906 25° Northeast 356 410 15,200 960 Climbing Jacksonville Center
05:15PM 32.8569 -80.9364 26° Northeast 361 415 16,200 960 Climbing Jacksonville Center
05:16PM 32.9503 -80.8850 25° Northeast 366 421 17,200 900 Climbing Jacksonville Center
05:17PM 33.0472 -80.8283 26° Northeast 372 428 18,100 960 Climbing Jacksonville Center
05:18PM 33.1444 -80.7764 24° Northeast 377 434 19,200 1,020 Climbing Jacksonville Center
05:19PM 33.2439 -80.7219 25° Northeast 377 434 20,200 960 Climbing Jacksonville Center
05:20PM 33.3450 -80.6622 26° Northeast 387 445 21,200 1,020 Climbing Jacksonville Center
05:21PM 33.4442 -80.6050 26° Northeast 387 445 22,300 1,020 Climbing Jacksonville Center
05:22PM 33.5494 -80.5450 25° Northeast 399 459 23,300 1,080 Climbing Jacksonville Center
05:23PM 33.6506 -80.4850 26° Northeast 399 459 24,500 1,200 Climbing Jacksonville Center
05:24PM 33.7539 -80.4294 24° Northeast 394 453 25,800 1,260 Climbing Jacksonville Center
05:25PM 33.8531 -80.3694 27° Northeast 394 453 27,100 1,260 Climbing Jacksonville Center
05:26PM 33.9519 -80.3139 25° Northeast 394 453 28,400 1,200 Climbing Jacksonville Center
05:27PM 34.0489 -80.2583 25° Northeast 394 453 29,500 1,080 Climbing Jacksonville Center
05:28PM 34.1458 -80.2003 26° Northeast 389 448 30,600 1,140 Climbing Jacksonville Center
05:29PM 34.2444 -80.1419 26° Northeast 384 442 31,800 1,140 Climbing Jacksonville Center
05:31PM 34.4081 -80.0447 26° Northeast 389 448 33,800 1,020 Climbing Washington Center
05:32PM 34.4978 -79.9917 26° Northeast 389 448 34,700 600 Climbing Washington Center
05:33PM 34.5978 -79.9367 24° Northeast 389 448 35,000 120 Climbing Washington Center
05:34PM 34.7044 -79.8742 26° Northeast 399 459 35,000  Level Washington Center
05:35PM 34.8131 -79.8089 26° Northeast 415 478 35,000  Level Washington Center
05:36PM 34.9303 -79.7392 26° Northeast 436 502 35,000  Level Washington Center
05:37PM 35.0453 -79.6739 25° Northeast 446 513 35,000  Level Washington Center
05:38PM 35.1603 -79.6011 27° Northeast 456 525 35,000  Level Washington Center
05:39PM 35.2714 -79.5253 29° Northeast 461 531 35,000  Level Washington Center
05:40PM 35.3847 -79.4414 31° Northeast 466 536 35,000  Level Washington Center
05:41PM 35.4978 -79.3603 30° Northeast 471 542 35,000  Level Washington Center
05:42PM 35.6067 -79.2811 31° Northeast 465 535 35,000  Level Washington Center
05:43PM 35.7200 -79.1967 31° Northeast 465 535 35,000  Level Washington Center
05:44PM 35.8308 -79.1172 30° Northeast 460 529 35,000  Level Washington Center
05:45PM 35.9417 -79.0350 31° Northeast 460 529 35,000  Level Washington Center
05:46PM 36.0653 -78.9453 30° Northeast 460 529 35,000  Level Washington Center
05:47PM 36.1761 -78.8600 32° Northeast 460 529 35,000  Level Washington Center
05:48PM 36.2867 -78.7819 30° Northeast 460 529 35,000  Level Washington Center
05:49PM 36.3975 -78.6964 32° Northeast 460 529 35,000  Level Washington Center
05:50PM 36.5081 -78.6128 31° Northeast 460 529 35,000  Level Washington Center
05:51PM 36.6167 -78.5317 31° Northeast 460 529 35,000  Level Washington Center
05:52PM 36.7103 -78.4550 33° Northeast 460 529 35,000  Level Washington Center
05:53PM 36.8228 -78.3708 31° Northeast 460 529 35,000  Level Washington Center
05:54PM 36.9311 -78.2889 31° Northeast 460 529 35,000  Level Washington Center
05:55PM 37.0519 -78.1942 32° Northeast 460 529 35,000  Level Washington Center
05:56PM 37.1475 -78.1219 31° Northeast 460 529 35,000  Level Washington Center
05:57PM 37.2556 -78.0394 31° Northeast 454 522 35,000  Level Washington Center
05:58PM 37.3617 -77.9567 32° Northeast 454 522 35,000  Level Washington Center
05:59PM 37.4717 -77.8736 31° Northeast 454 522 35,000  Level Washington Center
06:00PM 37.5775 -77.7850 34° Northeast 459 528 35,000  Level Washington Center
06:01PM 37.6794 -77.6908 36° Northeast 459 528 35,000  Level Washington Center
06:02PM 37.7811 -77.5992 35° Northeast 454 522 35,000  Level Washington Center
06:03PM 37.8828 -77.5072 36° Northeast 454 522 35,000  Level Washington Center
06:04PM 37.9864 -77.4150 35° Northeast 454 522 35,000  Level Washington Center
06:05PM 38.0858 -77.3197 37° Northeast 454 522 35,000  Level Washington Center
06:06PM 38.1828 -77.2294 36° Northeast 449 517 35,000  Level Washington Center
06:07PM 38.2842 -77.1364 36° Northeast 444 511 35,000  Level Washington Center
06:08PM 38.3917 -77.0381 36° Northeast 439 505 35,000  Level Washington Center
06:09PM 38.4908 -76.9472 36° Northeast 439 505 35,000  Level Washington Center
06:10PM 38.5897 -76.8558 36° Northeast 439 505 35,000  Level Washington Center
06:11PM 38.6867 -76.7644 36° Northeast 439 505 35,000  Level Washington Center
06:12PM 38.7814 -76.6594 41° Northeast 439 505 35,000  Level Washington Center
06:13PM 38.8742 -76.5542 41° Northeast 439 505 35,000 -540 Level Washington Center
06:14PM 38.9667 -76.4458 42° Northeast 439 505 34,000 -1,560 Descending Washington Center
06:15PM 39.0569 -76.3400 42° Northeast 439 505 31,900 -2,220 Descending Washington Center
06:16PM 39.1492 -76.2339 42° Northeast 439 505 29,600 -2,400 Descending Washington Center
06:17PM 39.2414 -76.1275 42° Northeast 439 505 27,100 -1,380 Descending Washington Center
06:18PM 39.3336 -76.0183 42° Northeast 439 505 26,900 -60 Descending Washington Center
06:19PM 39.4236 -75.9114 43° Northeast 439 505 27,000  Climbing Washington Center
06:20PM 39.5175 -75.8014 42° Northeast 439 505 26,900 -1,200 Descending Washington Center
06:21PM 39.6053 -75.6967 43° Northeast 439 505 24,600 -2,400 Descending Washington Center
06:22PM 39.6928 -75.5942 42° Northeast 427 491 22,200 -2,280 Descending Washington Center
06:23PM 39.7739 -75.4942 43° Northeast 414 476 20,100 -2,100 Descending Washington Center
06:24PM 39.8572 -75.3942 43° Northeast 409 471 18,100 -1,680 Descending Washington Center
06:25PM 39.9278 -75.3075 43° Northeast 396 456 16,800 -1,800 Descending Washington Center
06:26PM 40.0067 -75.2122 43° Northeast 391 450 14,500 -2,220 Descending Washington Center
06:27PM 40.0833 -75.1197 43° Northeast 386 444 12,400 -1,980 Descending Washington Center
06:28PM 40.1539 -75.0325 43° Northeast 366 421 10,600 -1,680 Descending Washington Center
06:28PM 40.2000 -74.9667 47° Northeast 303 349 9,500 -1,440 Descending New York TRACON
06:29PM 40.2667 -74.9000 37° Northeast 286 329 8,100 -1,200 Descending New York TRACON
06:30PM 40.3000 -74.8000 66° East 280 322 7,200 -600 Descending New York TRACON
06:31PM 40.3167 -74.7000 78° East 283 326 7,000 -540 Descending New York TRACON
06:32PM 40.3500 -74.6000 66° East 287 330 6,200 -540 Descending New York TRACON
06:33PM 40.4000 -74.6167 346° North 270 311 6,000 -120 Descending New York TRACON
06:34PM 40.4833 -74.6333 351° North 262 302 6,000  Level New York TRACON
06:35PM 40.5500 -74.6333 360° North 268 308 6,000  Level New York TRACON
06:36PM 40.6167 -74.6167 11° North 263 303 6,000  Level New York TRACON
06:37PM 40.7000 -74.6000 North 265 305 6,000  Level New York TRACON
06:38PM 40.7667 -74.5833 11° North 265 305 6,000 -300 Level New York TRACON
06:39PM 40.8333 -74.5667 11° North 267 307 5,400 -480 Descending New York TRACON
06:40PM 40.8833 -74.4833 52° Northeast 265 305 5,000 -240 Descending New York TRACON
06:41PM 40.9333 -74.4000 52° Northeast 265 305 5,000  Level New York TRACON
06:42PM 40.9500 -74.3167 75° East 250 288 5,000 -300 Level New York TRACON
06:43PM 40.9167 -74.2333 118° Southeast 218 251 4,500 -540 Descending New York TRACON
06:44PM 40.9000 -74.1833 114° Southeast 203 234 4,000 -600 Descending New York TRACON
06:45PM 40.8667 -74.1167 123° Southeast 198 228 3,400 -600 Descending New York TRACON
06:46PM 40.8333 -74.0833 143° Southeast 182 209 2,900 -720 Descending New York TRACON
06:47PM 40.7833 -74.1000 194° South 172 198 2,000 -900 Descending New York TRACON